Time;durP1;ratioP1;P1;durP2;ratioP2;P2;SDS_P1;SDS_P2;PMS_P1;PMS_P2;Temp;Humidity;BMP_temperature;BMP_pressure;BME280_temperature;BME280_humidity;BME280_pressure;Samples;Min_cycle;Max_cycle;Signal;HPM_P1;HPM_P2
2024/04/18 00:00:39;;;;;;;3.53;3.33;;;;;;;;;;5377196;26;20258;-66
2024/04/18 00:03:07;;;;;;;6.25;4.40;;;;;;;;;;5376193;26;20614;-67
2024/04/18 00:05:34;;;;;;;3.30;3.10;;;;;;;;;;5376193;26;20227;-67
2024/04/18 00:08:03;;;;;;;3.88;3.53;;;;;;;;;;5352824;26;20270;-66
2024/04/18 00:10:29;;;;;;;3.70;2.95;;;;;;;;;;5342176;26;20255;-66
2024/04/18 00:12:58;;;;;;;2.95;2.75;;;;;;;;;;5341021;26;20236;-66
2024/04/18 00:15:27;;;;;;;3.60;3.30;;;;;;;;;;5341633;26;20267;-67
2024/04/18 00:17:56;;;;;;;7.75;5.25;;;;;;;;;;5362619;26;20239;-67
2024/04/18 00:20:22;;;;;;;6.47;4.90;;;;;;;;;;5376533;26;20598;-67
2024/04/18 00:22:51;;;;;;;3.20;2.90;;;;;;;;;;5375695;26;20266;-66
2024/04/18 00:25:20;;;;;;;3.58;3.03;;;;;;;;;;5376589;26;20303;-66
2024/04/18 00:27:46;;;;;;;7.47;3.50;;;;;;;;;;5356218;26;20267;-67
2024/04/18 00:30:15;;;;;;;4.78;3.78;;;;;;;;;;5333698;26;20345;-67
2024/04/18 00:32:44;;;;;;;5.72;5.25;;;;;;;;;;5338368;26;20284;-65
2024/04/18 00:35:13;;;;;;;3.70;3.40;;;;;;;;;;5309897;26;20312;-67
2024/04/18 00:37:39;;;;;;;4.28;3.80;;;;;;;;;;5344385;26;20243;-68
2024/04/18 00:40:09;;;;;;;7.78;3.40;;;;;;;;;;5344924;26;20545;-66
2024/04/18 00:42:35;;;;;;;5.80;3.67;;;;;;;;;;5338568;26;20582;-66
2024/04/18 00:45:04;;;;;;;3.38;3.17;;;;;;;;;;5312238;26;20822;-66
2024/04/18 00:47:30;;;;;;;4.00;3.70;;;;;;;;;;5354912;26;20243;-66
2024/04/18 00:50:02;;;;;;;5.25;3.97;;;;;;;;;;5310334;26;20292;-66
2024/04/18 00:52:28;;;;;;;3.60;3.30;;;;;;;;;;5309936;26;20276;-67
2024/04/18 00:54:58;;;;;;;7.30;4.70;;;;;;;;;;5309647;26;20253;-66
2024/04/18 00:57:24;;;;;;;3.88;3.53;;;;;;;;;;5322951;26;20244;-66
2024/04/18 00:59:53;;;;;;;6.57;4.75;;;;;;;;;;5342404;26;20241;-66
2024/04/18 01:02:21;;;;;;;5.15;4.57;;;;;;;;;;5343836;26;20244;-67
2024/04/18 01:04:50;;;;;;;4.07;3.78;;;;;;;;;;5340036;26;20342;-68
2024/04/18 01:07:19;;;;;;;3.80;3.50;;;;;;;;;;5341777;26;20263;-66
2024/04/18 01:09:48;;;;;;;4.47;4.10;;;;;;;;;;5338864;26;20236;-67
2024/04/18 01:12:14;;;;;;;4.75;4.35;;;;;;;;;;5309909;27;20236;-66
2024/04/18 01:14:43;;;;;;;3.05;2.90;;;;;;;;;;5324260;26;20304;-67
2024/04/18 01:17:10;;;;;;;3.95;3.65;;;;;;;;;;5335837;26;20251;-66
2024/04/18 01:19:39;;;;;;;4.05;3.75;;;;;;;;;;5321969;26;20347;-67
2024/04/18 01:22:06;;;;;;;4.13;3.72;;;;;;;;;;5309539;26;20603;-66
2024/04/18 01:24:37;;;;;;;5.00;3.20;;;;;;;;;;5330378;26;20240;-67
2024/04/18 01:27:06;;;;;;;4.25;3.95;;;;;;;;;;5350937;26;20239;-67
2024/04/18 01:29:35;;;;;;;4.32;3.90;;;;;;;;;;5378784;26;20667;-66
2024/04/18 01:32:01;;;;;;;4.07;3.65;;;;;;;;;;5318064;26;20245;-68
2024/04/18 01:34:30;;;;;;;3.75;3.47;;;;;;;;;;5316900;26;20292;-67
2024/04/18 01:36:56;;;;;;;4.70;4.05;;;;;;;;;;5321961;26;20243;-67
2024/04/18 01:39:25;;;;;;;4.72;4.43;;;;;;;;;;5328153;26;20586;-68
2024/04/18 01:41:52;;;;;;;5.03;4.18;;;;;;;;;;5319017;26;20383;-66
2024/04/18 01:44:23;;;;;;;4.75;4.35;;;;;;;;;;5342668;26;20244;-66
2024/04/18 01:46:49;;;;;;;5.03;4.50;;;;;;;;;;5343596;26;20598;-66
2024/04/18 01:49:18;;;;;;;5.03;4.55;;;;;;;;;;5337108;26;20291;-67
2024/04/18 01:51:45;;;;;;;5.00;4.60;;;;;;;;;;5343450;26;20647;-67
2024/04/18 01:54:13;;;;;;;5.10;4.63;;;;;;;;;;5337935;26;20245;-66
2024/04/18 01:56:40;;;;;;;6.35;5.55;;;;;;;;;;5309940;26;20323;-67
2024/04/18 01:59:09;;;;;;;6.50;5.90;;;;;;;;;;5378070;26;20239;-67
2024/04/18 02:01:38;;;;;;;5.88;5.25;;;;;;;;;;5342712;26;20330;-67
2024/04/18 02:04:06;;;;;;;7.68;5.93;;;;;;;;;;5340777;26;20286;-66
2024/04/18 02:06:33;;;;;;;6.30;5.68;;;;;;;;;;5343066;26;20739;-67
2024/04/18 02:09:02;;;;;;;10.13;8.65;;;;;;;;;;5316831;26;20253;-66
2024/04/18 02:11:28;;;;;;;7.85;6.32;;;;;;;;;;5311420;26;20245;-67
2024/04/18 02:13:57;;;;;;;7.80;6.97;;;;;;;;;;5315855;26;20241;-66
2024/04/18 02:16:23;;;;;;;6.28;5.68;;;;;;;;;;5322431;26;20237;-67
2024/04/18 02:18:55;;;;;;;7.20;6.10;;;;;;;;;;5316807;26;20350;-67
2024/04/18 02:21:21;;;;;;;6.38;5.78;;;;;;;;;;5309034;27;20241;-68
2024/04/18 02:23:50;;;;;;;10.85;7.18;;;;;;;;;;5313116;26;20284;-66
2024/04/18 02:26:16;;;;;;;6.65;5.90;;;;;;;;;;5333544;26;20730;-67
2024/04/18 02:28:45;;;;;;;6.50;5.90;;;;;;;;;;5318293;26;20242;-66
2024/04/18 02:31:11;;;;;;;5.15;4.65;;;;;;;;;;5308712;27;20670;-66
2024/04/18 02:33:40;;;;;;;5.55;4.90;;;;;;;;;;5322570;26;20232;-66
2024/04/18 02:36:09;;;;;;;3.88;3.63;;;;;;;;;;5342744;26;20580;-66
2024/04/18 02:38:38;;;;;;;3.15;2.95;;;;;;;;;;5345206;26;20234;-67
2024/04/18 02:41:05;;;;;;;2.50;2.40;;;;;;;;;;5343198;26;20232;-67
2024/04/18 02:43:34;;;;;;;2.15;2.03;;;;;;;;;;5327580;26;20249;-67
2024/04/18 02:46:00;;;;;;;2.33;2.20;;;;;;;;;;5345571;26;20241;-68
2024/04/18 02:48:29;;;;;;;1.65;1.55;;;;;;;;;;5340968;26;20268;-66
2024/04/18 02:50:56;;;;;;;1.65;1.55;;;;;;;;;;5341981;26;20263;-66
2024/04/18 02:53:27;;;;;;;1.98;1.88;;;;;;;;;;5319836;26;20236;-66
2024/04/18 02:55:53;;;;;;;2.08;1.98;;;;;;;;;;5342204;26;20698;-67
2024/04/18 02:58:22;;;;;;;1.98;1.88;;;;;;;;;;5365478;26;20232;-66
2024/04/18 03:00:48;;;;;;;1.92;1.83;;;;;;;;;;5357311;26;20268;-66
2024/04/18 03:03:17;;;;;;;2.08;1.92;;;;;;;;;;5341044;26;20330;-66
2024/04/18 03:05:44;;;;;;;2.45;1.95;;;;;;;;;;5333228;26;20245;-67
2024/04/18 03:08:13;;;;;;;2.20;2.10;;;;;;;;;;5343733;26;20278;-67
2024/04/18 03:10:49;;;;;;;2.45;2.35;;;;;;;;;;5318436;26;20583;-66
2024/04/18 03:13:18;;;;;;;2.40;2.20;;;;;;;;;;5341074;26;20271;-66
2024/04/18 03:15:45;;;;;;;5.68;2.22;;;;;;;;;;5342970;26;20228;-66
2024/04/18 03:18:14;;;;;;;2.60;2.40;;;;;;;;;;5362576;26;20340;-68
2024/04/18 03:20:40;;;;;;;2.30;2.20;;;;;;;;;;5314492;26;20249;-66
2024/04/18 03:23:09;;;;;;;2.90;2.53;;;;;;;;;;5307902;26;20276;-67
2024/04/18 03:25:35;;;;;;;2.90;2.70;;;;;;;;;;5307581;27;20233;-66
2024/04/18 03:28:07;;;;;;;2.65;2.45;;;;;;;;;;5350428;26;20239;-66
2024/04/18 03:30:38;;;;;;;2.92;2.72;;;;;;;;;;5369113;26;20734;-66
2024/04/18 03:33:06;;;;;;;3.45;3.15;;;;;;;;;;5327809;26;20233;-68
2024/04/18 03:35:36;;;;;;;3.25;3.05;;;;;;;;;;5316644;26;20240;-66
2024/04/18 03:38:05;;;;;;;3.95;3.65;;;;;;;;;;5337553;26;20276;-66
2024/04/18 03:40:34;;;;;;;3.13;2.92;;;;;;;;;;5318992;26;20243;-67
2024/04/18 03:43:03;;;;;;;3.13;2.83;;;;;;;;;;5307723;26;20267;-66
2024/04/18 03:45:34;;;;;;;3.85;3.58;;;;;;;;;;5306997;27;20264;-68
2024/04/18 03:48:01;;;;;;;3.67;3.47;;;;;;;;;;5332705;26;20244;-66
2024/04/18 03:50:30;;;;;;;4.00;3.70;;;;;;;;;;5365388;26;20227;-67
2024/04/18 03:52:56;;;;;;;4.10;3.80;;;;;;;;;;5350383;26;20244;-66
2024/04/18 03:55:25;;;;;;;4.72;4.32;;;;;;;;;;5308502;26;20233;-67
2024/04/18 03:57:51;;;;;;;5.03;4.63;;;;;;;;;;5337123;26;20737;-66
2024/04/18 04:00:20;;;;;;;4.90;4.50;;;;;;;;;;5339359;26;20237;-67
2024/04/18 04:02:49;;;;;;;6.43;4.32;;;;;;;;;;5324073;26;20287;-66
2024/04/18 04:05:18;;;;;;;5.60;5.10;;;;;;;;;;5338695;26;20274;-67
2024/04/18 04:07:44;;;;;;;6.30;5.70;;;;;;;;;;5341655;26;20681;-65
2024/04/18 04:10:13;;;;;;;5.18;4.75;;;;;;;;;;5323699;26;20273;-67
2024/04/18 04:12:39;;;;;;;5.60;5.10;;;;;;;;;;5341368;26;20318;-66
2024/04/18 04:15:09;;;;;;;5.82;5.18;;;;;;;;;;5319960;26;20241;-65
2024/04/18 04:17:36;;;;;;;7.05;6.35;;;;;;;;;;5316444;26;20279;-65
2024/04/18 04:20:07;;;;;;;6.13;5.55;;;;;;;;;;5338106;26;20571;-66
2024/04/18 04:22:34;;;;;;;6.10;5.50;;;;;;;;;;5341430;26;20245;-66
2024/04/18 04:25:03;;;;;;;7.80;7.00;;;;;;;;;;5340987;26;20723;-66
2024/04/18 04:27:29;;;;;;;9.52;7.30;;;;;;;;;;5316601;26;20257;-66
2024/04/18 04:29:58;;;;;;;6.78;6.07;;;;;;;;;;5306646;26;20284;-66
2024/04/18 04:32:24;;;;;;;6.88;6.18;;;;;;;;;;5313334;26;20248;-67
2024/04/18 04:34:53;;;;;;;11.43;7.40;;;;;;;;;;5333505;26;20596;-67
2024/04/18 04:37:22;;;;;;;6.85;6.25;;;;;;;;;;5346425;26;20749;-65
2024/04/18 04:39:51;;;;;;;6.82;6.20;;;;;;;;;;5342324;26;20240;-66
2024/04/18 04:42:17;;;;;;;6.18;5.68;;;;;;;;;;5314490;26;20621;-65
2024/04/18 04:44:46;;;;;;;7.05;6.35;;;;;;;;;;5306304;26;20280;-65
2024/04/18 04:47:13;;;;;;;7.85;6.88;;;;;;;;;;5309656;26;20584;-66
2024/04/18 04:49:42;;;;;;;8.60;7.32;;;;;;;;;;5335590;26;20275;-67
2024/04/18 04:52:08;;;;;;;8.02;7.25;;;;;;;;;;5338704;26;20232;-67
2024/04/18 04:54:41;;;;;;;10.10;8.20;;;;;;;;;;5326442;26;20348;-65
2024/04/18 04:57:08;;;;;;;8.20;7.38;;;;;;;;;;5312396;26;20264;-66
2024/04/18 04:59:37;;;;;;;8.75;7.85;;;;;;;;;;5340722;26;20789;-66
2024/04/18 05:02:03;;;;;;;8.57;7.40;;;;;;;;;;5323195;26;20275;-67
2024/04/18 05:04:32;;;;;;;10.82;7.78;;;;;;;;;;5337358;26;20248;-67
2024/04/18 05:06:58;;;;;;;8.45;7.55;;;;;;;;;;5319539;26;20237;-66
2024/04/18 05:09:27;;;;;;;9.90;8.90;;;;;;;;;;5342407;26;20337;-68
2024/04/18 05:11:56;;;;;;;8.88;7.97;;;;;;;;;;5335267;26;20289;-65
2024/04/18 05:14:25;;;;;;;9.38;7.80;;;;;;;;;;5320690;26;20327;-64
2024/04/18 05:16:52;;;;;;;12.32;9.30;;;;;;;;;;5314661;26;20304;-65
2024/04/18 05:19:21;;;;;;;12.93;9.90;;;;;;;;;;5370325;26;20286;-68
2024/04/18 05:21:48;;;;;;;11.05;9.75;;;;;;;;;;5340581;26;20287;-65
2024/04/18 05:24:17;;;;;;;11.52;10.38;;;;;;;;;;5339964;26;20547;-67
2024/04/18 05:26:43;;;;;;;11.30;10.10;;;;;;;;;;5315305;26;20269;-67
2024/04/18 05:32:02;;;;;;;9.40;8.40;;;;;;;;;;5343349;26;20274;-65
2024/04/18 05:34:32;;;;;;;11.40;9.52;;;;;;;;;;5341421;26;20275;-66
2024/04/18 05:37:00;;;;;;;14.02;9.43;;;;;;;;;;5320443;26;20233;-65
2024/04/18 05:39:29;;;;;;;9.57;8.68;;;;;;;;;;5325338;26;20283;-68
2024/04/18 05:41:58;;;;;;;10.43;9.35;;;;;;;;;;5339512;26;20525;-72
2024/04/18 05:44:32;;;;;;;8.30;7.50;;;;;;;;;;5331150;26;20232;-70
2024/04/18 05:47:00;;;;;;;9.50;8.18;;;;;;;;;;5343110;26;20275;-70
2024/04/18 05:49:29;;;;;;;10.35;8.45;;;;;;;;;;5351042;26;20632;-69
2024/04/18 05:51:58;;;;;;;8.07;7.28;;;;;;;;;;5340341;26;20240;-66
2024/04/18 05:54:27;;;;;;;8.13;6.82;;;;;;;;;;5310342;26;20284;-72
2024/04/18 05:56:56;;;;;;;9.25;8.02;;;;;;;;;;5309942;26;20805;-68
2024/04/18 05:59:25;;;;;;;9.90;7.45;;;;;;;;;;5343683;26;20275;-74
2024/04/18 06:01:56;;;;;;;8.25;7.50;;;;;;;;;;5343637;26;20244;-71
2024/04/18 06:04:25;;;;;;;7.82;7.03;;;;;;;;;;5342901;26;20236;-70
2024/04/18 06:06:54;;;;;;;8.48;7.72;;;;;;;;;;5340800;26;20241;-71
2024/04/18 06:09:23;;;;;;;8.10;7.13;;;;;;;;;;5344076;26;20623;-73
2024/04/18 06:11:51;;;;;;;6.28;5.68;;;;;;;;;;5344030;26;20232;-72
2024/04/18 06:14:21;;;;;;;8.77;5.55;;;;;;;;;;5342899;26;20237;-75
2024/04/18 06:16:51;;;;;;;5.55;4.70;;;;;;;;;;5343673;26;20236;-71
2024/04/18 06:19:21;;;;;;;8.20;5.60;;;;;;;;;;5375386;26;20255;-70
2024/04/18 06:21:50;;;;;;;7.30;6.03;;;;;;;;;;5378162;26;20286;-68
2024/04/18 06:24:18;;;;;;;6.07;5.57;;;;;;;;;;5380046;26;20629;-71
2024/04/18 06:26:47;;;;;;;5.35;4.95;;;;;;;;;;5379715;26;20258;-69
2024/04/18 06:29:16;;;;;;;5.72;5.22;;;;;;;;;;5347174;26;20271;-70
2024/04/18 06:31:45;;;;;;;5.78;4.85;;;;;;;;;;5347339;26;20247;-71
2024/04/18 06:34:14;;;;;;;7.00;5.50;;;;;;;;;;5343161;26;20245;-73
2024/04/18 06:36:45;;;;;;;6.07;5.13;;;;;;;;;;5343142;26;20236;-62
2024/04/18 06:39:14;;;;;;;5.25;4.88;;;;;;;;;;5372403;26;20247;-69
2024/04/18 06:41:43;;;;;;;6.90;6.30;;;;;;;;;;5377889;26;20235;-67
2024/04/18 06:44:12;;;;;;;7.93;7.13;;;;;;;;;;5343289;26;20763;-69
2024/04/18 06:46:41;;;;;;;7.85;7.10;;;;;;;;;;5342826;26;20225;-66
2024/04/18 06:49:10;;;;;;;8.68;7.88;;;;;;;;;;5371148;26;20670;-66
2024/04/18 06:51:39;;;;;;;7.05;6.28;;;;;;;;;;5354148;26;20248;-63
2024/04/18 06:54:12;;;;;;;6.80;6.18;;;;;;;;;;5342539;26;20240;-63
2024/04/18 06:56:41;;;;;;;6.47;5.82;;;;;;;;;;5343613;26;20271;-76
2024/04/18 06:59:10;;;;;;;6.90;5.90;;;;;;;;;;5371036;26;20278;-67
2024/04/18 07:01:39;;;;;;;7.57;6.25;;;;;;;;;;5367951;26;20248;-67
2024/04/18 07:04:08;;;;;;;7.32;6.72;;;;;;;;;;5343177;26;20349;-71
2024/04/18 07:06:37;;;;;;;7.00;5.82;;;;;;;;;;5342803;26;20263;-70
2024/04/18 07:09:06;;;;;;;7.45;6.75;;;;;;;;;;5369274;26;20294;-71
2024/04/18 07:11:37;;;;;;;8.23;7.25;;;;;;;;;;5377677;26;20262;-71
2024/04/18 07:14:06;;;;;;;7.88;7.07;;;;;;;;;;5377197;26;20310;-69
2024/04/18 07:16:36;;;;;;;8.27;7.05;;;;;;;;;;5368318;26;20293;-69
2024/04/18 07:19:04;;;;;;;10.32;8.02;;;;;;;;;;5368803;26;20286;-70
2024/04/18 07:21:33;;;;;;;7.90;7.10;;;;;;;;;;5377262;26;20270;-69
2024/04/18 07:24:02;;;;;;;9.75;8.32;;;;;;;;;;5376913;26;20286;-70
2024/04/18 07:26:31;;;;;;;9.32;7.88;;;;;;;;;;5377721;26;20772;-72
2024/04/18 07:29:03;;;;;;;8.85;7.40;;;;;;;;;;5351921;26;20244;-70
2024/04/18 07:31:32;;;;;;;8.25;7.45;;;;;;;;;;5341958;26;20232;-73
2024/04/18 07:34:01;;;;;;;9.68;8.55;;;;;;;;;;5342281;26;20240;-67
2024/04/18 07:36:30;;;;;;;9.55;7.75;;;;;;;;;;5342507;26;20258;-68
2024/04/18 07:38:59;;;;;;;10.70;8.30;;;;;;;;;;5366750;26;20349;-68
2024/04/18 07:41:28;;;;;;;8.55;7.80;;;;;;;;;;5376723;26;20257;-69
2024/04/18 07:43:57;;;;;;;9.90;8.90;;;;;;;;;;5355433;26;20244;-66
2024/04/18 07:46:32;;;;;;;9.57;8.57;;;;;;;;;;5342435;26;20659;-68
2024/04/18 07:49:01;;;;;;;11.05;8.10;;;;;;;;;;5366823;26;20243;-66
2024/04/18 07:51:30;;;;;;;11.40;9.98;;;;;;;;;;5355027;26;20244;-69
2024/04/18 07:54:00;;;;;;;9.80;8.80;;;;;;;;;;5340622;26;20244;-67
2024/04/18 07:56:29;;;;;;;10.45;9.43;;;;;;;;;;5341576;26;20375;-74
2024/04/18 07:58:58;;;;;;;11.18;9.88;;;;;;;;;;5365407;26;20282;-62
2024/04/18 08:01:29;;;;;;;11.60;9.85;;;;;;;;;;5376473;26;20771;-70
2024/04/18 08:03:58;;;;;;;11.65;9.55;;;;;;;;;;5376412;26;20579;-64
2024/04/18 08:06:27;;;;;;;11.88;9.15;;;;;;;;;;5356046;26;20236;-63
2024/04/18 08:08:56;;;;;;;12.20;10.90;;;;;;;;;;5364699;26;20228;-62
2024/04/18 08:11:25;;;;;;;11.13;9.85;;;;;;;;;;5376578;26;20261;-62
2024/04/18 08:13:54;;;;;;;10.50;9.40;;;;;;;;;;5376308;26;20775;-62
2024/04/18 08:16:23;;;;;;;9.90;8.88;;;;;;;;;;5376099;26;20227;-65
2024/04/18 08:18:54;;;;;;;10.30;9.27;;;;;;;;;;5354601;26;20267;-71
2024/04/18 08:21:23;;;;;;;11.60;10.50;;;;;;;;;;5340063;26;20240;-71
2024/04/18 08:23:53;;;;;;;10.38;9.45;;;;;;;;;;5340302;26;20240;-63
2024/04/18 08:26:22;;;;;;;10.70;9.70;;;;;;;;;;5345670;26;20240;-64
2024/04/18 08:28:51;;;;;;;10.70;9.60;;;;;;;;;;5362753;26;20721;-64
2024/04/18 08:31:19;;;;;;;10.70;9.60;;;;;;;;;;5375980;26;20231;-63
2024/04/18 08:33:49;;;;;;;9.77;8.70;;;;;;;;;;5375536;26;20235;-66
2024/04/18 08:36:20;;;;;;;11.45;10.35;;;;;;;;;;5376268;26;20249;-64
2024/04/18 08:38:49;;;;;;;11.30;9.30;;;;;;;;;;5367656;26;20292;-67
2024/04/18 08:41:19;;;;;;;11.23;10.13;;;;;;;;;;5378786;26;20793;-66
2024/04/18 08:43:49;;;;;;;10.63;9.52;;;;;;;;;;5356510;26;20236;-75
2024/04/18 08:46:18;;;;;;;10.82;8.98;;;;;;;;;;5340799;26;20236;-63
2024/04/18 08:48:47;;;;;;;10.35;9.45;;;;;;;;;;5360535;26;20341;-73
2024/04/18 08:51:17;;;;;;;9.70;8.90;;;;;;;;;;5357766;26;20236;-64
2024/04/18 08:53:48;;;;;;;9.85;9.05;;;;;;;;;;5340903;26;20240;-72
2024/04/18 08:56:21;;;;;;;8.52;7.93;;;;;;;;;;5340745;26;20232;-68
2024/04/18 08:58:50;;;;;;;12.95;9.68;;;;;;;;;;5361340;26;20688;-70
2024/04/18 09:01:19;;;;;;;8.95;8.05;;;;;;;;;;5362633;26;20333;-68
2024/04/18 09:03:45;;;;;;;10.40;9.30;;;;;;;;;;5340653;26;20275;-73
2024/04/18 09:06:16;;;;;;;10.40;9.52;;;;;;;;;;5343936;26;20275;-75
2024/04/18 09:08:45;;;;;;;11.52;10.38;;;;;;;;;;5361704;26;20239;-75
2024/04/18 09:11:17;;;;;;;9.60;8.65;;;;;;;;;;5379216;26;20772;-73
2024/04/18 09:13:46;;;;;;;8.90;8.20;;;;;;;;;;5378836;26;20235;-73
2024/04/18 09:16:15;;;;;;;10.60;9.70;;;;;;;;;;5379017;26;20266;-71
2024/04/18 09:18:44;;;;;;;10.20;9.40;;;;;;;;;;5360240;26;20255;-74
2024/04/18 09:21:13;;;;;;;10.35;9.55;;;;;;;;;;5347403;26;20263;-75
2024/04/18 09:23:42;;;;;;;11.50;10.60;;;;;;;;;;5343157;26;20260;-75
2024/04/18 09:26:11;;;;;;;10.60;9.90;;;;;;;;;;5343347;26;20233;-76
2024/04/18 09:28:43;;;;;;;9.30;8.57;;;;;;;;;;5343458;26;20358;-64
2024/04/18 09:31:13;;;;;;;11.02;10.27;;;;;;;;;;5343201;26;20279;-65
2024/04/18 09:33:42;;;;;;;11.23;10.13;;;;;;;;;;5344121;26;20291;-64
2024/04/18 09:36:12;;;;;;;9.75;9.05;;;;;;;;;;5344071;26;20263;-74
2024/04/18 09:38:44;;;;;;;10.13;9.38;;;;;;;;;;5360823;26;20337;-74
2024/04/18 09:41:14;;;;;;;10.80;10.13;;;;;;;;;;5378576;26;20270;-72
2024/04/18 09:43:47;;;;;;;10.50;9.75;;;;;;;;;;5359722;26;20291;-71
2024/04/18 09:46:17;;;;;;;12.67;11.83;;;;;;;;;;5342938;26;20248;-69
2024/04/18 09:48:46;;;;;;;11.20;10.60;;;;;;;;;;5360753;26;20598;-73
2024/04/18 09:51:16;;;;;;;11.80;10.90;;;;;;;;;;5341880;26;20984;-63
2024/04/18 09:53:45;;;;;;;13.03;12.13;;;;;;;;;;5337510;26;20658;-66
2024/04/18 09:56:15;;;;;;;11.07;10.40;;;;;;;;;;5343610;26;20563;-75
2024/04/18 09:58:48;;;;;;;10.35;9.77;;;;;;;;;;5360631;26;20986;-75
2024/04/18 10:01:18;;;;;;;11.03;10.33;;;;;;;;;;5382983;26;20259;-66
2024/04/18 10:03:47;;;;;;;10.40;9.90;;;;;;;;;;5371611;26;20595;-67
2024/04/18 10:06:17;;;;;;;10.27;9.68;;;;;;;;;;5343277;26;20232;-75
2024/04/18 10:08:52;;;;;;;12.15;11.23;;;;;;;;;;5360065;26;20286;-67
2024/04/18 10:11:22;;;;;;;11.60;10.57;;;;;;;;;;5364697;26;20267;-66
2024/04/18 10:13:53;;;;;;;9.90;9.32;;;;;;;;;;5341862;26;20244;-67
2024/04/18 10:16:22;;;;;;;9.75;9.15;;;;;;;;;;5337958;26;20240;-76
2024/04/18 10:18:51;;;;;;;9.70;9.10;;;;;;;;;;5342418;26;20682;-75
2024/04/18 10:21:28;;;;;;;11.40;10.60;;;;;;;;;;5343106;26;20240;-75
2024/04/18 10:23:57;;;;;;;10.68;9.88;;;;;;;;;;5342376;26;20726;-75
2024/04/18 10:26:26;;;;;;;9.80;9.20;;;;;;;;;;5342784;26;20272;-75
2024/04/18 10:28:57;;;;;;;11.88;10.75;;;;;;;;;;5358027;26;20235;-75
2024/04/18 10:31:30;;;;;;;12.02;10.90;;;;;;;;;;5347112;26;20263;-67
2024/04/18 10:33:59;;;;;;;10.13;9.43;;;;;;;;;;5343507;26;20787;-75
2024/04/18 10:36:29;;;;;;;10.80;10.02;;;;;;;;;;5341995;26;20764;-75
2024/04/18 10:38:58;;;;;;;10.93;10.13;;;;;;;;;;5344702;26;20721;-67
2024/04/18 10:41:24;;;;;;;11.10;10.40;;;;;;;;;;5342572;26;20660;-67
2024/04/18 10:43:54;;;;;;;10.50;9.90;;;;;;;;;;5336868;26;20967;-68
2024/04/18 10:46:26;;;;;;;10.70;10.10;;;;;;;;;;5342165;26;20813;-67
2024/04/18 10:48:56;;;;;;;11.23;10.53;;;;;;;;;;5344159;26;20647;-75
2024/04/18 10:51:28;;;;;;;11.67;10.97;;;;;;;;;;5341957;26;20619;-67
2024/04/18 10:53:57;;;;;;;11.23;10.63;;;;;;;;;;5337220;26;20607;-75
2024/04/18 10:56:25;;;;;;;11.63;11.00;;;;;;;;;;5342137;26;20964;-75
2024/04/18 10:58:54;;;;;;;11.93;11.20;;;;;;;;;;5344901;26;20640;-67
2024/04/18 11:01:26;;;;;;;12.03;11.37;;;;;;;;;;5341311;26;20567;-75
2024/04/18 11:03:55;;;;;;;12.50;11.60;;;;;;;;;;5346494;26;20729;-66
2024/04/18 11:06:24;;;;;;;12.23;11.43;;;;;;;;;;5340595;26;21240;-66
2024/04/18 11:08:53;;;;;;;12.77;11.57;;;;;;;;;;5358686;26;20650;-67
2024/04/18 11:11:27;;;;;;;13.00;12.20;;;;;;;;;;5356687;26;20579;-66
2024/04/18 11:13:56;;;;;;;14.93;13.73;;;;;;;;;;5347940;26;20639;-67
2024/04/18 11:16:28;;;;;;;12.87;12.07;;;;;;;;;;5346886;26;20590;-75
2024/04/18 11:18:57;;;;;;;13.00;12.00;;;;;;;;;;5345069;26;20713;-66
2024/04/18 11:21:27;;;;;;;12.00;11.43;;;;;;;;;;5342508;26;20579;-75
2024/04/18 11:23:57;;;;;;;13.00;12.20;;;;;;;;;;5336957;26;20595;-75
2024/04/18 11:26:28;;;;;;;13.47;12.77;;;;;;;;;;5341713;26;20615;-75
2024/04/18 11:28:58;;;;;;;13.67;12.77;;;;;;;;;;5339299;26;20610;-67
2024/04/18 11:31:29;;;;;;;25.60;23.60;;;;;;;;;;5342432;26;20974;-67
2024/04/18 11:33:58;;;;;;;20.00;18.37;;;;;;;;;;5376445;26;20646;-75
2024/04/18 11:36:27;;;;;;;12.97;12.27;;;;;;;;;;5377397;26;20688;-75
2024/04/18 11:39:00;;;;;;;17.30;15.93;;;;;;;;;;5357531;26;20603;-67
2024/04/18 11:41:30;;;;;;;13.80;13.00;;;;;;;;;;5341352;26;21522;-67
2024/04/18 11:43:59;;;;;;;15.20;14.10;;;;;;;;;;5340484;26;20605;-67
2024/04/18 11:46:33;;;;;;;14.50;13.67;;;;;;;;;;5347257;26;20567;-67
2024/04/18 11:48:59;;;;;;;17.63;16.57;;;;;;;;;;5360177;26;20713;-67
2024/04/18 11:51:28;;;;;;;17.13;15.80;;;;;;;;;;5375019;26;20605;-75
2024/04/18 11:53:57;;;;;;;17.40;16.07;;;;;;;;;;5376715;26;20648;-67
2024/04/18 11:56:26;;;;;;;14.10;13.13;;;;;;;;;;5349124;26;20914;-67
2024/04/18 11:58:57;;;;;;;13.97;13.17;;;;;;;;;;5346842;26;20648;-66
2024/04/18 12:01:26;;;;;;;15.57;14.33;;;;;;;;;;5342904;26;20607;-67
2024/04/18 12:03:57;;;;;;;13.73;12.77;;;;;;;;;;5340983;26;20603;-75
2024/04/18 12:06:27;;;;;;;13.37;12.57;;;;;;;;;;5342585;26;20564;-76
2024/04/18 12:08:55;;;;;;;13.97;12.97;;;;;;;;;;5358134;26;20661;-75
2024/04/18 12:11:24;;;;;;;13.50;12.63;;;;;;;;;;5376815;26;21181;-67
2024/04/18 12:13:54;;;;;;;12.93;12.23;;;;;;;;;;5376503;26;20749;-75
2024/04/18 12:16:24;;;;;;;12.67;11.87;;;;;;;;;;5376947;26;20542;-75
2024/04/18 12:18:53;;;;;;;11.80;11.10;;;;;;;;;;5354555;26;20714;-67
2024/04/18 12:21:25;;;;;;;10.60;9.90;;;;;;;;;;5341187;26;20600;-75
2024/04/18 12:23:54;;;;;;;9.67;9.17;;;;;;;;;;5340968;26;20603;-75
2024/04/18 12:26:23;;;;;;;9.13;8.73;;;;;;;;;;5341312;26;20636;-67
2024/04/18 12:28:52;;;;;;;8.90;8.50;;;;;;;;;;5356343;26;20602;-67
2024/04/18 12:31:21;;;;;;;10.50;9.70;;;;;;;;;;5376366;26;20590;-75
2024/04/18 12:33:50;;;;;;;11.00;10.40;;;;;;;;;;5376302;26;20634;-75
2024/04/18 12:36:21;;;;;;;10.80;10.30;;;;;;;;;;5354529;26;21008;-75
2024/04/18 12:38:52;;;;;;;11.23;10.53;;;;;;;;;;5342744;26;21410;-68
2024/04/18 12:41:21;;;;;;;12.30;11.50;;;;;;;;;;5347479;26;20567;-75
2024/04/18 12:43:50;;;;;;;12.00;11.20;;;;;;;;;;5343483;26;20703;-76
2024/04/18 12:46:19;;;;;;;12.30;11.60;;;;;;;;;;5343392;26;20567;-67
2024/04/18 12:48:48;;;;;;;13.80;13.00;;;;;;;;;;5341454;26;20676;-75
2024/04/18 12:51:17;;;;;;;14.27;13.47;;;;;;;;;;5343023;26;20912;-75
2024/04/18 12:53:46;;;;;;;13.90;13.00;;;;;;;;;;5342583;26;20961;-75
2024/04/18 12:56:18;;;;;;;14.70;13.90;;;;;;;;;;5342248;26;20608;-68
2024/04/18 12:58:47;;;;;;;14.13;13.43;;;;;;;;;;5340703;26;21066;-75
2024/04/18 13:01:13;;;;;;;15.17;14.37;;;;;;;;;;5343265;26;20556;-68
2024/04/18 13:03:42;;;;;;;16.17;15.27;;;;;;;;;;5343055;26;20599;-71
2024/04/18 13:06:11;;;;;;;14.93;14.07;;;;;;;;;;5326532;26;20548;-75
2024/04/18 13:08:40;;;;;;;15.03;14.27;;;;;;;;;;5338726;26;20606;-67
2024/04/18 13:11:09;;;;;;;13.80;13.10;;;;;;;;;;5340534;26;20671;-68
2024/04/18 13:13:40;;;;;;;13.57;12.87;;;;;;;;;;5350391;26;21237;-67
2024/04/18 13:16:09;;;;;;;14.37;13.63;;;;;;;;;;5360506;26;20602;-75
2024/04/18 13:18:38;;;;;;;13.50;12.80;;;;;;;;;;5349143;26;20658;-67
2024/04/18 13:21:07;;;;;;;13.23;12.43;;;;;;;;;;5358789;26;20559;-67
2024/04/18 13:23:36;;;;;;;13.30;12.60;;;;;;;;;;5357474;26;21310;-75
2024/04/18 13:26:06;;;;;;;13.73;13.03;;;;;;;;;;5348782;26;21065;-74
2024/04/18 13:28:34;;;;;;;13.30;12.40;;;;;;;;;;5357038;26;20581;-67
2024/04/18 13:31:10;;;;;;;14.90;14.07;;;;;;;;;;5338888;26;20560;-66
2024/04/18 13:33:39;;;;;;;14.20;13.50;;;;;;;;;;5368001;26;20689;-75
2024/04/18 13:36:10;;;;;;;14.20;13.30;;;;;;;;;;5355380;26;20554;-66
2024/04/18 13:38:40;;;;;;;14.60;13.90;;;;;;;;;;5350531;26;20651;-73
2024/04/18 13:41:08;;;;;;;15.10;14.20;;;;;;;;;;5348440;26;21059;-66
2024/04/18 13:43:35;;;;;;;14.87;14.07;;;;;;;;;;5344251;26;20599;-65
2024/04/18 13:46:07;;;;;;;14.73;14.00;;;;;;;;;;5342791;26;20579;-73
2024/04/18 13:48:36;;;;;;;14.83;13.93;;;;;;;;;;5339510;26;20599;-74
2024/04/18 13:51:06;;;;;;;16.00;15.10;;;;;;;;;;5337652;26;20563;-65
2024/04/18 13:53:35;;;;;;;15.10;14.20;;;;;;;;;;5342724;26;21334;-66
2024/04/18 13:56:04;;;;;;;14.70;14.00;;;;;;;;;;5341578;26;20555;-72
2024/04/18 13:58:33;;;;;;;13.37;12.77;;;;;;;;;;5343343;26;20647;-73
2024/04/18 14:01:02;;;;;;;12.60;11.90;;;;;;;;;;5341166;26;20998;-65
2024/04/18 14:03:34;;;;;;;10.83;10.40;;;;;;;;;;5339585;26;20595;-65
2024/04/18 14:06:03;;;;;;;11.33;10.87;;;;;;;;;;5340710;26;20558;-66
2024/04/18 14:08:32;;;;;;;11.60;11.00;;;;;;;;;;5342033;26;20602;-65
2024/04/18 14:10:58;;;;;;;10.60;10.20;;;;;;;;;;5341725;26;21221;-72
2024/04/18 14:13:27;;;;;;;11.40;10.90;;;;;;;;;;5342374;26;20607;-74
2024/04/18 14:18:53;;;;;;;11.53;11.13;;;;;;;;;;5298532;26;20740;-66
2024/04/18 14:21:22;;;;;;;12.40;11.90;;;;;;;;;;5342376;26;20682;-73
2024/04/18 14:23:51;;;;;;;13.30;12.70;;;;;;;;;;5328142;26;20660;-66
2024/04/18 14:26:20;;;;;;;13.53;12.87;;;;;;;;;;5338566;26;21147;-66
2024/04/18 14:28:49;;;;;;;13.20;12.50;;;;;;;;;;5346988;26;20607;-74
2024/04/18 14:31:18;;;;;;;13.27;12.67;;;;;;;;;;5340919;26;20678;-74
2024/04/18 14:33:50;;;;;;;12.23;11.60;;;;;;;;;;5342809;26;20618;-74
2024/04/18 14:36:19;;;;;;;14.73;13.87;;;;;;;;;;5339564;26;20604;-66
2024/04/18 14:38:48;;;;;;;13.50;12.90;;;;;;;;;;5313432;26;20589;-75
2024/04/18 14:41:17;;;;;;;12.80;12.27;;;;;;;;;;5318723;26;20621;-66
2024/04/18 14:43:46;;;;;;;13.67;13.00;;;;;;;;;;5339492;26;20611;-66
2024/04/18 14:46:15;;;;;;;14.37;13.57;;;;;;;;;;5342935;26;20579;-66
2024/04/18 14:48:44;;;;;;;13.83;13.13;;;;;;;;;;5339994;26;20950;-74